sensor_id;sensor_type;location;lat;lon;timestamp;P1;durP1;ratioP1;P2;durP2;ratioP2
5809;SDS011;16210;52.338;9.816;2023-04-01T00:00:19;0.70;;;0.70;;
5809;SDS011;16210;52.338;9.816;2023-04-01T00:05:23;0.73;;;0.73;;
5809;SDS011;16210;52.338;9.816;2023-04-01T00:10:27;1.43;;;1.13;;
5809;SDS011;16210;52.338;9.816;2023-04-01T00:15:32;0.70;;;0.70;;
5809;SDS011;16210;52.338;9.816;2023-04-01T00:20:35;0.70;;;0.70;;
5809;SDS011;16210;52.338;9.816;2023-04-01T00:25:39;0.50;;;0.50;;
5809;SDS011;16210;52.338;9.816;2023-04-01T00:30:44;0.60;;;0.60;;
5809;SDS011;16210;52.338;9.816;2023-04-01T00:35:48;1.67;;;0.90;;
5809;SDS011;16210;52.338;9.816;2023-04-01T00:40:56;0.60;;;0.60;;
5809;SDS011;16210;52.338;9.816;2023-04-01T00:46:03;0.90;;;0.90;;
5809;SDS011;16210;52.338;9.816;2023-04-01T00:51:07;0.80;;;0.80;;
5809;SDS011;16210;52.338;9.816;2023-04-01T00:56:13;0.70;;;0.70;;
5809;SDS011;16210;52.338;9.816;2023-04-01T01:01:21;0.63;;;0.63;;
5809;SDS011;16210;52.338;9.816;2023-04-01T01:06:28;0.70;;;0.70;;
5809;SDS011;16210;52.338;9.816;2023-04-01T01:11:42;0.70;;;0.70;;
5809;SDS011;16210;52.338;9.816;2023-04-01T01:16:50;0.50;;;0.50;;
5809;SDS011;16210;52.338;9.816;2023-04-01T01:22:04;0.50;;;0.50;;
5809;SDS011;16210;52.338;9.816;2023-04-01T01:27:22;0.50;;;0.50;;
5809;SDS011;16210;52.338;9.816;2023-04-01T01:32:33;0.53;;;0.53;;
5809;SDS011;16210;52.338;9.816;2023-04-01T01:37:47;0.60;;;0.60;;
5809;SDS011;16210;52.338;9.816;2023-04-01T01:42:54;0.60;;;0.60;;
5809;SDS011;16210;52.338;9.816;2023-04-01T01:47:59;0.60;;;0.60;;
5809;SDS011;16210;52.338;9.816;2023-04-01T01:53:05;0.83;;;0.83;;
5809;SDS011;16210;52.338;9.816;2023-04-01T01:58:11;0.60;;;0.60;;
5809;SDS011;16210;52.338;9.816;2023-04-01T02:03:17;0.60;;;0.60;;
5809;SDS011;16210;52.338;9.816;2023-04-01T02:08:25;0.60;;;0.60;;
5809;SDS011;16210;52.338;9.816;2023-04-01T02:13:32;0.50;;;0.50;;
5809;SDS011;16210;52.338;9.816;2023-04-01T02:18:39;0.60;;;0.60;;
5809;SDS011;16210;52.338;9.816;2023-04-01T02:23:44;0.70;;;0.70;;
5809;SDS011;16210;52.338;9.816;2023-04-01T02:28:48;0.60;;;0.60;;
5809;SDS011;16210;52.338;9.816;2023-04-01T02:33:53;0.60;;;0.60;;
5809;SDS011;16210;52.338;9.816;2023-04-01T02:38:58;0.50;;;0.50;;
5809;SDS011;16210;52.338;9.816;2023-04-01T02:44:04;0.60;;;0.60;;
5809;SDS011;16210;52.338;9.816;2023-04-01T02:49:09;0.70;;;0.70;;
5809;SDS011;16210;52.338;9.816;2023-04-01T02:54:14;0.50;;;0.50;;
5809;SDS011;16210;52.338;9.816;2023-04-01T02:59:18;0.60;;;0.60;;
5809;SDS011;16210;52.338;9.816;2023-04-01T03:04:21;0.50;;;0.50;;
5809;SDS011;16210;52.338;9.816;2023-04-01T03:09:26;0.60;;;0.60;;
5809;SDS011;16210;52.338;9.816;2023-04-01T03:14:30;0.60;;;0.60;;
5809;SDS011;16210;52.338;9.816;2023-04-01T03:19:34;0.60;;;0.60;;
5809;SDS011;16210;52.338;9.816;2023-04-01T03:24:43;0.60;;;0.60;;
5809;SDS011;16210;52.338;9.816;2023-04-01T03:29:47;0.60;;;0.60;;
5809;SDS011;16210;52.338;9.816;2023-04-01T03:34:50;0.60;;;0.60;;
5809;SDS011;16210;52.338;9.816;2023-04-01T03:39:55;0.63;;;0.63;;
5809;SDS011;16210;52.338;9.816;2023-04-01T03:44:59;0.60;;;0.60;;
5809;SDS011;16210;52.338;9.816;2023-04-01T03:50:03;0.67;;;0.67;;
5809;SDS011;16210;52.338;9.816;2023-04-01T03:55:09;0.70;;;0.70;;
5809;SDS011;16210;52.338;9.816;2023-04-01T04:00:14;0.70;;;0.70;;
5809;SDS011;16210;52.338;9.816;2023-04-01T04:05:20;0.70;;;0.70;;
5809;SDS011;16210;52.338;9.816;2023-04-01T04:10:25;0.70;;;0.70;;
5809;SDS011;16210;52.338;9.816;2023-04-01T04:15:31;0.70;;;0.70;;
5809;SDS011;16210;52.338;9.816;2023-04-01T04:20:35;0.70;;;0.70;;
5809;SDS011;16210;52.338;9.816;2023-04-01T04:25:40;0.90;;;0.90;;
5809;SDS011;16210;52.338;9.816;2023-04-01T04:30:43;0.90;;;0.90;;
5809;SDS011;16210;52.338;9.816;2023-04-01T04:35:47;0.80;;;0.80;;
5809;SDS011;16210;52.338;9.816;2023-04-01T04:40:53;0.80;;;0.80;;
5809;SDS011;16210;52.338;9.816;2023-04-01T04:45:56;0.70;;;0.70;;
5809;SDS011;16210;52.338;9.816;2023-04-01T04:51:00;0.73;;;0.73;;
5809;SDS011;16210;52.338;9.816;2023-04-01T04:56:06;1.00;;;1.00;;
5809;SDS011;16210;52.338;9.816;2023-04-01T05:01:17;0.87;;;0.87;;
5809;SDS011;16210;52.338;9.816;2023-04-01T05:06:22;0.70;;;0.70;;
5809;SDS011;16210;52.338;9.816;2023-04-01T05:11:29;1.00;;;1.00;;
5809;SDS011;16210;52.338;9.816;2023-04-01T05:16:32;0.97;;;0.97;;
5809;SDS011;16210;52.338;9.816;2023-04-01T05:21:36;1.17;;;1.17;;
5809;SDS011;16210;52.338;9.816;2023-04-01T05:26:41;0.80;;;0.80;;
5809;SDS011;16210;52.338;9.816;2023-04-01T05:31:45;1.03;;;1.03;;
5809;SDS011;16210;52.338;9.816;2023-04-01T05:36:48;1.23;;;1.23;;
5809;SDS011;16210;52.338;9.816;2023-04-01T05:41:53;1.20;;;1.20;;
5809;SDS011;16210;52.338;9.816;2023-04-01T05:46:57;1.17;;;1.17;;
5809;SDS011;16210;52.338;9.816;2023-04-01T05:52:01;1.20;;;1.20;;
5809;SDS011;16210;52.338;9.816;2023-04-01T05:57:08;0.80;;;0.80;;
5809;SDS011;16210;52.338;9.816;2023-04-01T06:02:11;1.10;;;1.10;;
5809;SDS011;16210;52.338;9.816;2023-04-01T06:07:16;1.30;;;1.30;;
5809;SDS011;16210;52.338;9.816;2023-04-01T06:12:26;1.07;;;1.07;;
5809;SDS011;16210;52.338;9.816;2023-04-01T06:17:41;1.10;;;1.10;;
5809;SDS011;16210;52.338;9.816;2023-04-01T06:22:58;1.10;;;1.10;;
5809;SDS011;16210;52.338;9.816;2023-04-01T06:28:23;1.00;;;1.00;;
5809;SDS011;16210;52.338;9.816;2023-04-01T06:33:46;1.30;;;1.30;;
5809;SDS011;16210;52.338;9.816;2023-04-01T06:39:02;1.40;;;1.40;;
5809;SDS011;16210;52.338;9.816;2023-04-01T06:44:16;1.13;;;1.13;;
5809;SDS011;16210;52.338;9.816;2023-04-01T06:49:44;0.93;;;0.93;;
5809;SDS011;16210;52.338;9.816;2023-04-01T06:55:18;1.00;;;1.00;;
5809;SDS011;16210;52.338;9.816;2023-04-01T07:00:49;0.90;;;0.90;;
5809;SDS011;16210;52.338;9.816;2023-04-01T07:05:54;1.07;;;1.07;;
5809;SDS011;16210;52.338;9.816;2023-04-01T07:11:01;1.13;;;1.13;;
5809;SDS011;16210;52.338;9.816;2023-04-01T07:16:27;1.10;;;1.10;;
5809;SDS011;16210;52.338;9.816;2023-04-01T07:21:34;0.80;;;0.80;;
5809;SDS011;16210;52.338;9.816;2023-04-01T07:26:49;0.80;;;0.80;;
5809;SDS011;16210;52.338;9.816;2023-04-01T07:32:04;0.90;;;0.90;;
5809;SDS011;16210;52.338;9.816;2023-04-01T07:37:13;0.70;;;0.70;;
5809;SDS011;16210;52.338;9.816;2023-04-01T07:42:21;1.27;;;1.27;;
5809;SDS011;16210;52.338;9.816;2023-04-01T07:47:37;0.77;;;0.77;;
5809;SDS011;16210;52.338;9.816;2023-04-01T07:52:47;0.60;;;0.60;;
5809;SDS011;16210;52.338;9.816;2023-04-01T07:57:59;0.70;;;0.70;;
5809;SDS011;16210;52.338;9.816;2023-04-01T08:03:17;0.70;;;0.70;;
5809;SDS011;16210;52.338;9.816;2023-04-01T08:08:29;0.63;;;0.63;;
5809;SDS011;16210;52.338;9.816;2023-04-01T08:14:00;0.50;;;0.50;;
5809;SDS011;16210;52.338;9.816;2023-04-01T08:19:30;0.60;;;0.60;;
5809;SDS011;16210;52.338;9.816;2023-04-01T08:24:41;0.50;;;0.50;;
5809;SDS011;16210;52.338;9.816;2023-04-01T08:29:56;0.60;;;0.60;;
5809;SDS011;16210;52.338;9.816;2023-04-01T08:35:07;0.50;;;0.50;;
5809;SDS011;16210;52.338;9.816;2023-04-01T08:40:25;0.40;;;0.40;;
5809;SDS011;16210;52.338;9.816;2023-04-01T08:45:45;0.40;;;0.40;;
5809;SDS011;16210;52.338;9.816;2023-04-01T08:51:04;0.50;;;0.40;;
5809;SDS011;16210;52.338;9.816;2023-04-01T08:56:34;0.40;;;0.40;;
5809;SDS011;16210;52.338;9.816;2023-04-01T09:01:53;0.40;;;0.40;;
5809;SDS011;16210;52.338;9.816;2023-04-01T09:07:27;0.40;;;0.30;;
5809;SDS011;16210;52.338;9.816;2023-04-01T09:12:59;0.40;;;0.40;;
5809;SDS011;16210;52.338;9.816;2023-04-01T09:18:21;0.40;;;0.40;;
5809;SDS011;16210;52.338;9.816;2023-04-01T09:23:35;0.40;;;0.30;;
5809;SDS011;16210;52.338;9.816;2023-04-01T09:28:52;0.40;;;0.30;;
5809;SDS011;16210;52.338;9.816;2023-04-01T09:39:37;0.40;;;0.30;;
5809;SDS011;16210;52.338;9.816;2023-04-01T09:44:46;0.40;;;0.30;;
5809;SDS011;16210;52.338;9.816;2023-04-01T09:50:03;0.40;;;0.30;;
5809;SDS011;16210;52.338;9.816;2023-04-01T09:55:39;0.77;;;0.50;;
5809;SDS011;16210;52.338;9.816;2023-04-01T10:01:10;0.40;;;0.30;;
5809;SDS011;16210;52.338;9.816;2023-04-01T10:06:41;0.40;;;0.30;;
5809;SDS011;16210;52.338;9.816;2023-04-01T10:12:33;0.40;;;0.30;;
5809;SDS011;16210;52.338;9.816;2023-04-01T10:17:53;0.40;;;0.30;;
5809;SDS011;16210;52.338;9.816;2023-04-01T10:40:36;0.40;;;0.30;;
5809;SDS011;16210;52.338;9.816;2023-04-01T10:46:05;0.40;;;0.30;;
5809;SDS011;16210;52.338;9.816;2023-04-01T10:51:32;0.77;;;0.77;;
5809;SDS011;16210;52.338;9.816;2023-04-01T10:57:45;0.40;;;0.30;;
5809;SDS011;16210;52.338;9.816;2023-04-01T11:04:01;0.60;;;0.60;;
5809;SDS011;16210;52.338;9.816;2023-04-01T11:15:37;0.40;;;0.30;;
5809;SDS011;16210;52.338;9.816;2023-04-01T11:21:04;0.40;;;0.30;;
5809;SDS011;16210;52.338;9.816;2023-04-01T11:26:32;0.40;;;0.30;;
5809;SDS011;16210;52.338;9.816;2023-04-01T11:32:02;0.40;;;0.30;;
5809;SDS011;16210;52.338;9.816;2023-04-01T11:37:15;0.40;;;0.30;;
5809;SDS011;16210;52.338;9.816;2023-04-01T11:42:47;0.40;;;0.30;;
5809;SDS011;16210;52.338;9.816;2023-04-01T11:48:36;0.40;;;0.30;;
5809;SDS011;16210;52.338;9.816;2023-04-01T11:53:49;0.40;;;0.30;;
5809;SDS011;16210;52.338;9.816;2023-04-01T11:59:04;0.40;;;0.30;;
5809;SDS011;16210;52.338;9.816;2023-04-01T12:04:32;0.40;;;0.30;;
5809;SDS011;16210;52.338;9.816;2023-04-01T12:10:02;0.40;;;0.30;;
5809;SDS011;16210;52.338;9.816;2023-04-01T12:15:16;0.40;;;0.30;;
5809;SDS011;16210;52.338;9.816;2023-04-01T12:20:26;0.40;;;0.30;;
5809;SDS011;16210;52.338;9.816;2023-04-01T12:25:41;0.40;;;0.30;;
5809;SDS011;16210;52.338;9.816;2023-04-01T12:31:02;0.40;;;0.30;;
5809;SDS011;16210;52.338;9.816;2023-04-01T12:36:15;0.40;;;0.30;;
5809;SDS011;16210;52.338;9.816;2023-04-01T12:41:30;0.40;;;0.30;;
5809;SDS011;16210;52.338;9.816;2023-04-01T12:46:39;0.50;;;0.50;;
5809;SDS011;16210;52.338;9.816;2023-04-01T12:57:21;0.50;;;0.30;;
5809;SDS011;16210;52.338;9.816;2023-04-01T13:02:37;0.80;;;0.80;;
5809;SDS011;16210;52.338;9.816;2023-04-01T13:13:16;2.37;;;0.70;;
5809;SDS011;16210;52.338;9.816;2023-04-01T13:18:30;0.40;;;0.30;;
5809;SDS011;16210;52.338;9.816;2023-04-01T13:23:42;0.40;;;0.30;;
5809;SDS011;16210;52.338;9.816;2023-04-01T13:28:56;0.40;;;0.30;;
5809;SDS011;16210;52.338;9.816;2023-04-01T13:34:09;0.40;;;0.30;;
5809;SDS011;16210;52.338;9.816;2023-04-01T13:39:29;0.40;;;0.40;;
5809;SDS011;16210;52.338;9.816;2023-04-01T13:44:43;0.40;;;0.30;;
5809;SDS011;16210;52.338;9.816;2023-04-01T13:50:12;0.40;;;0.30;;
5809;SDS011;16210;52.338;9.816;2023-04-01T13:55:30;0.40;;;0.30;;
5809;SDS011;16210;52.338;9.816;2023-04-01T14:00:46;0.60;;;0.57;;
5809;SDS011;16210;52.338;9.816;2023-04-01T14:11:24;1.13;;;1.07;;
5809;SDS011;16210;52.338;9.816;2023-04-01T14:16:40;2.60;;;1.40;;
5809;SDS011;16210;52.338;9.816;2023-04-01T14:22:04;0.97;;;0.80;;
5809;SDS011;16210;52.338;9.816;2023-04-01T14:27:12;0.40;;;0.40;;
5809;SDS011;16210;52.338;9.816;2023-04-01T14:32:39;1.00;;;0.90;;
5809;SDS011;16210;52.338;9.816;2023-04-01T14:37:56;0.70;;;0.70;;
5809;SDS011;16210;52.338;9.816;2023-04-01T14:43:16;0.73;;;0.70;;
5809;SDS011;16210;52.338;9.816;2023-04-01T14:48:30;0.97;;;0.97;;
5809;SDS011;16210;52.338;9.816;2023-04-01T14:53:36;0.93;;;0.63;;
5809;SDS011;16210;52.338;9.816;2023-04-01T14:58:44;0.50;;;0.50;;
5809;SDS011;16210;52.338;9.816;2023-04-01T15:03:51;0.80;;;0.80;;
5809;SDS011;16210;52.338;9.816;2023-04-01T15:09:01;0.60;;;0.60;;
5809;SDS011;16210;52.338;9.816;2023-04-01T15:14:17;0.60;;;0.60;;
5809;SDS011;16210;52.338;9.816;2023-04-01T15:19:35;0.60;;;0.60;;
5809;SDS011;16210;52.338;9.816;2023-04-01T15:24:46;0.60;;;0.60;;
5809;SDS011;16210;52.338;9.816;2023-04-01T15:30:02;0.50;;;0.50;;
5809;SDS011;16210;52.338;9.816;2023-04-01T15:35:21;0.83;;;0.77;;
5809;SDS011;16210;52.338;9.816;2023-04-01T15:40:36;0.70;;;0.60;;
5809;SDS011;16210;52.338;9.816;2023-04-01T15:45:47;0.80;;;0.70;;
5809;SDS011;16210;52.338;9.816;2023-04-01T15:50:56;0.77;;;0.77;;
5809;SDS011;16210;52.338;9.816;2023-04-01T15:56:15;0.67;;;0.67;;
5809;SDS011;16210;52.338;9.816;2023-04-01T16:01:26;0.60;;;0.60;;
5809;SDS011;16210;52.338;9.816;2023-04-01T16:06:50;0.93;;;0.83;;
5809;SDS011;16210;52.338;9.816;2023-04-01T16:12:01;0.70;;;0.70;;
5809;SDS011;16210;52.338;9.816;2023-04-01T16:17:24;0.90;;;0.90;;
5809;SDS011;16210;52.338;9.816;2023-04-01T16:22:35;1.00;;;1.00;;
5809;SDS011;16210;52.338;9.816;2023-04-01T16:27:42;0.70;;;0.70;;
5809;SDS011;16210;52.338;9.816;2023-04-01T16:32:50;0.70;;;0.70;;
5809;SDS011;16210;52.338;9.816;2023-04-01T16:38:01;0.80;;;0.80;;
5809;SDS011;16210;52.338;9.816;2023-04-01T16:43:13;0.80;;;0.80;;
5809;SDS011;16210;52.338;9.816;2023-04-01T16:48:25;0.60;;;0.60;;
5809;SDS011;16210;52.338;9.816;2023-04-01T16:53:36;1.00;;;1.00;;
5809;SDS011;16210;52.338;9.816;2023-04-01T16:58:56;0.83;;;0.83;;
5809;SDS011;16210;52.338;9.816;2023-04-01T17:04:04;0.70;;;0.70;;
5809;SDS011;16210;52.338;9.816;2023-04-01T17:09:17;1.13;;;1.10;;
5809;SDS011;16210;52.338;9.816;2023-04-01T17:14:28;1.00;;;1.00;;
5809;SDS011;16210;52.338;9.816;2023-04-01T17:19:37;1.27;;;1.27;;
5809;SDS011;16210;52.338;9.816;2023-04-01T17:25:03;0.80;;;0.80;;
5809;SDS011;16210;52.338;9.816;2023-04-01T17:35:38;0.90;;;0.90;;
5809;SDS011;16210;52.338;9.816;2023-04-01T17:40:52;0.83;;;0.83;;
5809;SDS011;16210;52.338;9.816;2023-04-01T17:46:02;0.70;;;0.70;;
5809;SDS011;16210;52.338;9.816;2023-04-01T17:51:15;0.63;;;0.63;;
5809;SDS011;16210;52.338;9.816;2023-04-01T17:56:29;0.80;;;0.80;;
5809;SDS011;16210;52.338;9.816;2023-04-01T18:01:45;0.60;;;0.60;;
5809;SDS011;16210;52.338;9.816;2023-04-01T18:12:25;10.87;;;1.30;;
5809;SDS011;16210;52.338;9.816;2023-04-01T18:17:43;1.00;;;1.00;;
5809;SDS011;16210;52.338;9.816;2023-04-01T18:22:57;0.80;;;0.80;;
5809;SDS011;16210;52.338;9.816;2023-04-01T18:28:16;0.97;;;0.97;;
5809;SDS011;16210;52.338;9.816;2023-04-01T18:33:23;1.20;;;1.20;;
5809;SDS011;16210;52.338;9.816;2023-04-01T18:38:33;0.90;;;0.90;;
5809;SDS011;16210;52.338;9.816;2023-04-01T18:43:49;0.70;;;0.70;;
5809;SDS011;16210;52.338;9.816;2023-04-01T18:49:05;1.17;;;1.17;;
5809;SDS011;16210;52.338;9.816;2023-04-01T18:54:11;1.17;;;1.07;;
5809;SDS011;16210;52.338;9.816;2023-04-01T18:59:20;1.40;;;1.37;;
5809;SDS011;16210;52.338;9.816;2023-04-01T19:04:30;0.70;;;0.70;;
5809;SDS011;16210;52.338;9.816;2023-04-01T19:09:43;1.17;;;1.17;;
5809;SDS011;16210;52.338;9.816;2023-04-01T19:15:01;0.67;;;0.67;;
5809;SDS011;16210;52.338;9.816;2023-04-01T19:20:14;0.60;;;0.60;;
5809;SDS011;16210;52.338;9.816;2023-04-01T19:25:26;1.10;;;1.10;;
5809;SDS011;16210;52.338;9.816;2023-04-01T19:30:48;1.37;;;1.37;;
5809;SDS011;16210;52.338;9.816;2023-04-01T19:35:59;1.00;;;1.00;;
5809;SDS011;16210;52.338;9.816;2023-04-01T19:41:14;0.73;;;0.73;;
5809;SDS011;16210;52.338;9.816;2023-04-01T19:46:27;1.00;;;1.00;;
5809;SDS011;16210;52.338;9.816;2023-04-01T19:51:34;0.70;;;0.70;;
5809;SDS011;16210;52.338;9.816;2023-04-01T19:56:43;1.10;;;1.10;;
5809;SDS011;16210;52.338;9.816;2023-04-01T20:01:53;0.60;;;0.60;;
5809;SDS011;16210;52.338;9.816;2023-04-01T20:07:04;0.60;;;0.60;;
5809;SDS011;16210;52.338;9.816;2023-04-01T20:12:11;0.60;;;0.60;;
5809;SDS011;16210;52.338;9.816;2023-04-01T20:17:20;1.63;;;1.10;;
5809;SDS011;16210;52.338;9.816;2023-04-01T20:22:31;0.93;;;0.80;;
5809;SDS011;16210;52.338;9.816;2023-04-01T20:27:41;0.70;;;0.70;;
5809;SDS011;16210;52.338;9.816;2023-04-01T20:32:54;1.67;;;1.33;;
5809;SDS011;16210;52.338;9.816;2023-04-01T20:38:10;0.70;;;0.70;;
5809;SDS011;16210;52.338;9.816;2023-04-01T20:43:33;0.70;;;0.70;;
5809;SDS011;16210;52.338;9.816;2023-04-01T20:49:19;1.37;;;1.33;;
5809;SDS011;16210;52.338;9.816;2023-04-01T20:54:31;1.00;;;1.00;;
5809;SDS011;16210;52.338;9.816;2023-04-01T20:59:54;0.50;;;0.50;;
5809;SDS011;16210;52.338;9.816;2023-04-01T21:05:09;1.10;;;1.10;;
5809;SDS011;16210;52.338;9.816;2023-04-01T21:10:37;1.03;;;0.83;;
5809;SDS011;16210;52.338;9.816;2023-04-01T21:15:48;4.93;;;2.10;;
5809;SDS011;16210;52.338;9.816;2023-04-01T21:20:59;2.47;;;2.27;;
5809;SDS011;16210;52.338;9.816;2023-04-01T21:26:24;1.37;;;1.27;;
5809;SDS011;16210;52.338;9.816;2023-04-01T21:31:39;1.13;;;1.13;;
5809;SDS011;16210;52.338;9.816;2023-04-01T21:36:55;1.50;;;1.40;;
5809;SDS011;16210;52.338;9.816;2023-04-01T21:42:07;1.83;;;1.43;;
5809;SDS011;16210;52.338;9.816;2023-04-01T21:53:05;1.10;;;1.10;;
5809;SDS011;16210;52.338;9.816;2023-04-01T22:04:22;1.60;;;1.50;;
5809;SDS011;16210;52.338;9.816;2023-04-01T22:09:39;5.40;;;2.37;;
5809;SDS011;16210;52.338;9.816;2023-04-01T22:14:45;3.40;;;1.80;;
5809;SDS011;16210;52.338;9.816;2023-04-01T22:19:53;1.40;;;1.30;;
5809;SDS011;16210;52.338;9.816;2023-04-01T22:25:02;2.77;;;1.93;;
5809;SDS011;16210;52.338;9.816;2023-04-01T22:30:12;2.03;;;1.93;;
5809;SDS011;16210;52.338;9.816;2023-04-01T22:35:23;0.60;;;0.60;;
5809;SDS011;16210;52.338;9.816;2023-04-01T22:40:36;4.33;;;2.60;;
5809;SDS011;16210;52.338;9.816;2023-04-01T22:51:07;1.27;;;1.17;;
5809;SDS011;16210;52.338;9.816;2023-04-01T22:56:19;4.30;;;2.20;;
5809;SDS011;16210;52.338;9.816;2023-04-01T23:01:25;1.20;;;0.80;;
5809;SDS011;16210;52.338;9.816;2023-04-01T23:06:33;2.00;;;1.90;;
5809;SDS011;16210;52.338;9.816;2023-04-01T23:11:44;1.70;;;1.60;;
5809;SDS011;16210;52.338;9.816;2023-04-01T23:16:51;1.63;;;1.53;;
5809;SDS011;16210;52.338;9.816;2023-04-01T23:21:59;1.53;;;1.33;;
5809;SDS011;16210;52.338;9.816;2023-04-01T23:27:10;9.23;;;1.70;;
5809;SDS011;16210;52.338;9.816;2023-04-01T23:32:15;2.33;;;2.13;;
5809;SDS011;16210;52.338;9.816;2023-04-01T23:37:19;1.30;;;1.30;;
5809;SDS011;16210;52.338;9.816;2023-04-01T23:42:25;2.40;;;2.27;;
5809;SDS011;16210;52.338;9.816;2023-04-01T23:47:30;3.13;;;2.27;;
5809;SDS011;16210;52.338;9.816;2023-04-01T23:52:35;1.87;;;1.77;;
5809;SDS011;16210;52.338;9.816;2023-04-01T23:57:41;2.73;;;1.53;;
